createdAt,value
2022-08-19T00:00:00.699Z,53.84
2022-08-19T00:05:04.629Z,53.97
2022-08-19T00:10:13.547Z,54.23
2022-08-19T00:15:18.373Z,54.74
2022-08-19T00:20:22.119Z,54.94
2022-08-19T00:25:30.109Z,55.32
2022-08-19T00:30:32.843Z,53.42
2022-08-19T00:35:35.354Z,54.74
2022-08-19T00:40:57.181Z,54.94
2022-08-19T00:46:00.312Z,55.20
2022-08-19T00:51:21.055Z,55.55
2022-08-19T00:56:24.525Z,55.73
2022-08-19T01:01:27.064Z,56.42
2022-08-19T01:06:29.374Z,56.24
2022-08-19T01:11:50.824Z,56.51
2022-08-19T01:16:55.705Z,56.25
2022-08-19T01:22:14.276Z,57.05
2022-08-19T01:27:19.107Z,56.28
2022-08-19T01:32:41.739Z,56.62
2022-08-19T01:37:50.365Z,57.17
2022-08-19T01:43:11.133Z,56.77
2022-08-19T01:48:14.521Z,56.74
2022-08-19T01:53:16.927Z,57.13
2022-08-19T01:58:42.982Z,57.24
2022-08-19T02:03:45.335Z,56.89
2022-08-19T02:08:48.986Z,57.40
2022-08-19T02:14:12.057Z,57.44
2022-08-19T02:19:14.324Z,57.56
2022-08-19T02:24:16.616Z,57.83
2022-08-19T02:29:37.362Z,57.75
2022-08-19T02:34:39.603Z,58.12
2022-08-19T02:39:41.861Z,58.06
2022-08-19T02:44:44.110Z,57.71
2022-08-19T02:49:47.188Z,58.05
2022-08-19T02:55:08.889Z,57.65
2022-08-19T03:00:13.805Z,57.56
2022-08-19T03:05:46.922Z,57.55
2022-08-19T03:10:57.741Z,57.07
2022-08-19T03:16:20.042Z,57.55
2022-08-19T03:21:25.248Z,57.46
2022-08-19T03:26:49.497Z,57.71
2022-08-19T03:31:53.112Z,57.65
2022-08-19T03:36:57.678Z,57.60
2022-08-19T03:42:38.705Z,57.18
2022-08-19T03:47:40.954Z,57.40
2022-08-19T03:52:45.464Z,57.30
2022-08-19T03:57:50.114Z,57.56
2022-08-19T04:02:58.414Z,57.16
2022-08-19T04:08:02.859Z,57.63
2022-08-19T04:13:07.355Z,57.34
2022-08-19T04:18:11.124Z,57.74
2022-08-19T04:23:14.633Z,57.88
2022-08-19T04:28:17.245Z,57.87
2022-08-19T04:33:26.711Z,58.04
2022-08-19T04:38:31.020Z,57.84
2022-08-19T04:43:35.167Z,57.08
2022-08-19T04:48:43.438Z,57.42
2022-08-19T04:53:53.586Z,56.99
2022-08-19T04:58:57.518Z,57.12
2022-08-19T05:04:01.982Z,56.97
2022-08-19T05:09:06.062Z,56.56
2022-08-19T05:14:09.395Z,56.87
2022-08-19T05:19:30.009Z,56.70
2022-08-19T05:24:35.840Z,56.31
2022-08-19T05:29:56.553Z,56.66
2022-08-19T05:34:58.840Z,55.63
2022-08-19T05:40:01.186Z,55.76
2022-08-19T05:45:06.748Z,55.66
2022-08-19T05:50:09.494Z,55.28
2022-08-19T05:55:12.195Z,55.66
2022-08-19T06:00:33.167Z,55.05
2022-08-19T06:05:42.264Z,54.87
2022-08-19T06:10:54.603Z,54.81
2022-08-19T06:15:56.878Z,54.92
2022-08-19T06:21:17.744Z,55.27
2022-08-19T06:26:41.184Z,54.63
2022-08-19T06:31:51.044Z,55.65
2022-08-19T06:36:53.715Z,55.03
2022-08-19T06:42:17.707Z,55.56
2022-08-19T06:47:39.256Z,55.02
2022-08-19T06:52:41.532Z,54.82
2022-08-19T06:57:43.962Z,54.66
2022-08-19T07:02:52.144Z,54.81
2022-08-19T07:08:04.858Z,55.23
2022-08-19T07:13:07.685Z,54.96
2022-08-19T07:18:11.707Z,54.60
2022-08-19T07:23:16.126Z,53.84
2022-08-19T07:28:24.464Z,54.29
2022-08-19T07:33:28.092Z,54.41
2022-08-19T07:38:30.543Z,54.38
2022-08-19T07:43:34.890Z,54.55
2022-08-19T07:48:56.239Z,54.20
2022-08-19T07:54:05.178Z,54.75
2022-08-19T07:59:07.681Z,54.57
2022-08-19T08:04:28.471Z,54.11
2022-08-19T08:09:49.635Z,54.54
2022-08-19T08:14:55.980Z,54.12
2022-08-19T08:19:58.738Z,54.14
2022-08-19T08:25:13.873Z,53.84
2022-08-19T08:30:26.433Z,52.97
2022-08-19T08:35:34.704Z,52.24
2022-08-19T08:40:50.919Z,48.49
2022-08-19T08:46:17.567Z,47.82
2022-08-19T08:52:11.690Z,46.78
2022-08-19T08:57:19.395Z,45.61
2022-08-19T09:02:21.748Z,45.64
2022-08-19T09:07:47.298Z,45.12
2022-08-19T09:13:48.442Z,45.45
2022-08-19T09:19:00.082Z,45.41
2022-08-19T09:24:04.026Z,45.95
2022-08-19T09:29:07.108Z,46.43
2022-08-19T09:34:21.163Z,46.35
2022-08-19T09:39:24.334Z,45.82
2022-08-19T09:44:26.675Z,45.41
2022-08-19T09:49:29.359Z,44.72
2022-08-19T09:54:31.899Z,44.90
2022-08-19T09:59:34.676Z,44.85
2022-08-19T10:04:55.284Z,44.27
2022-08-19T10:09:57.852Z,44.52
2022-08-19T10:15:00.941Z,44.44
2022-08-19T10:20:05.495Z,44.52
2022-08-19T10:25:28.127Z,43.68
2022-08-19T10:30:30.571Z,44.20
2022-08-19T10:35:56.318Z,43.41
2022-08-19T10:40:59.394Z,41.54
2022-08-19T10:46:01.698Z,40.16
2022-08-19T10:51:23.623Z,37.49
2022-08-19T10:56:45.797Z,38.02
2022-08-19T11:01:48.726Z,37.74
2022-08-19T11:06:53.819Z,36.74
2022-08-19T11:11:57.504Z,36.81
2022-08-19T11:17:06.400Z,36.19
2022-08-19T11:22:31.777Z,34.34
2022-08-19T11:27:45.753Z,33.76
2022-08-19T11:32:51.611Z,33.58
2022-08-19T11:37:55.107Z,34.04
2022-08-19T11:42:57.862Z,35.52
2022-08-19T11:48:23.085Z,33.65
2022-08-19T11:53:25.692Z,32.71
2022-08-19T11:58:28.138Z,32.21
2022-08-19T12:03:30.630Z,30.70
2022-08-19T12:08:33.091Z,29.26
2022-08-19T12:13:36.100Z,29.35
2022-08-19T12:18:38.520Z,29.92
2022-08-19T12:23:41.958Z,30.83
2022-08-19T12:28:44.827Z,30.68
2022-08-19T12:33:47.887Z,31.37
2022-08-19T12:38:50.281Z,31.90
2022-08-19T12:43:52.933Z,32.14
2022-08-19T12:48:56.226Z,32.24
2022-08-19T12:53:58.864Z,33.53
2022-08-19T12:59:05.971Z,34.40
2022-08-19T13:04:27.103Z,33.97
2022-08-19T13:09:29.452Z,34.75
2022-08-19T13:14:32.700Z,34.89
2022-08-19T13:19:37.952Z,35.51
2022-08-19T13:24:43.907Z,34.81
2022-08-19T13:30:07.100Z,35.19
2022-08-19T13:35:12.719Z,34.67
2022-08-19T13:40:23.968Z,35.09
2022-08-19T13:45:28.594Z,35.69
2022-08-19T13:50:35.193Z,35.30
2022-08-19T13:55:56.220Z,35.73
2022-08-19T14:01:00.335Z,36.00
2022-08-19T14:06:03.149Z,36.34
2022-08-19T14:11:06.385Z,36.02
2022-08-19T14:16:11.300Z,36.18
2022-08-19T14:21:21.288Z,35.82
2022-08-19T14:26:26.481Z,36.64
2022-08-19T14:31:47.720Z,36.55
2022-08-19T14:36:50.102Z,36.65
2022-08-19T14:41:52.576Z,36.81
2022-08-19T14:46:54.850Z,37.12
2022-08-19T14:51:57.768Z,37.58
2022-08-19T14:57:00.030Z,37.50
2022-08-19T15:02:34.949Z,37.57
2022-08-19T15:07:38.866Z,37.62
2022-08-19T15:12:41.475Z,38.30
2022-08-19T15:17:46.458Z,38.27
2022-08-19T15:22:49.133Z,38.17
2022-08-19T15:27:51.469Z,38.77
2022-08-19T15:32:54.454Z,38.26
2022-08-19T15:37:57.381Z,39.02
2022-08-19T15:43:22.416Z,38.63
2022-08-19T15:48:24.633Z,38.92
2022-08-19T15:53:27.066Z,39.04
2022-08-19T15:58:48.252Z,39.41
2022-08-19T16:04:14.376Z,39.49
2022-08-19T16:09:36.821Z,39.44
2022-08-19T16:14:39.418Z,39.77
2022-08-19T16:19:41.930Z,39.83
2022-08-19T16:24:44.490Z,39.83
2022-08-19T16:29:47.289Z,40.01
2022-08-19T16:34:50.443Z,39.65
2022-08-19T16:39:52.916Z,40.05
2022-08-19T16:44:55.325Z,39.65
2022-08-19T16:50:22.170Z,40.01
2022-08-19T16:55:31.547Z,39.90
2022-08-19T17:00:34.749Z,39.92
2022-08-19T17:05:45.308Z,39.63
2022-08-19T17:11:16.455Z,39.85
2022-08-19T17:16:10.543Z,39.12
2022-08-19T17:21:13.462Z,39.16
2022-08-19T17:26:34.568Z,39.50
2022-08-19T17:31:57.996Z,39.58
2022-08-19T17:37:00.454Z,39.45
2022-08-19T17:42:03.308Z,38.92
2022-08-19T17:47:08.573Z,39.40
2022-08-19T17:52:12.111Z,39.58
2022-08-19T17:57:14.478Z,39.33
2022-08-19T18:02:17.093Z,39.46
2022-08-19T18:07:27.065Z,39.42
2022-08-19T18:12:29.430Z,39.21
2022-08-19T18:17:31.881Z,39.41
2022-08-19T18:22:41.015Z,39.12
2022-08-19T18:27:43.653Z,38.94
2022-08-19T18:33:15.260Z,39.12
2022-08-19T18:38:54.553Z,38.69
2022-08-19T18:44:34.360Z,38.56
2022-08-19T18:49:36.830Z,38.29
2022-08-19T18:54:40.761Z,38.44
2022-08-19T18:59:44.986Z,38.41
2022-08-19T19:04:47.466Z,38.10
2022-08-19T19:09:52.946Z,38.09
2022-08-19T19:15:13.724Z,38.05
2022-08-19T19:20:16.436Z,37.44
2022-08-19T19:25:20.306Z,36.99
2022-08-19T19:30:33.474Z,37.26
2022-08-19T19:35:35.877Z,37.41
2022-08-19T19:40:38.362Z,37.02
2022-08-19T19:45:40.776Z,37.15
2022-08-19T19:50:56.105Z,36.94
2022-08-19T19:56:17.268Z,37.21
2022-08-19T20:01:24.720Z,37.08
2022-08-19T20:06:29.357Z,37.49
2022-08-19T20:11:46.479Z,37.27
2022-08-19T20:16:49.724Z,37.34
2022-08-19T20:21:56.067Z,37.53
2022-08-19T20:27:00.705Z,37.90
2022-08-19T20:32:03.230Z,37.85
2022-08-19T20:37:11.728Z,37.92
2022-08-19T20:42:13.851Z,38.31
2022-08-19T20:47:16.105Z,37.79
2022-08-19T20:52:18.405Z,38.06
2022-08-19T20:57:20.671Z,37.95
2022-08-19T21:02:25.019Z,38.04
2022-08-19T21:07:46.851Z,37.66
2022-08-19T21:12:49.572Z,38.40
2022-08-19T21:17:52.192Z,38.50
2022-08-19T21:22:54.389Z,39.36
2022-08-19T21:28:15.381Z,39.29
2022-08-19T21:33:37.417Z,38.96
2022-08-19T21:38:54.683Z,39.04
2022-08-19T21:43:57.067Z,38.98
2022-08-19T21:48:59.820Z,39.35
2022-08-19T21:54:02.151Z,39.16
2022-08-19T21:59:04.982Z,39.43
2022-08-19T22:04:07.231Z,39.35
2022-08-19T22:09:09.473Z,40.02
2022-08-19T22:14:11.725Z,39.72
2022-08-19T22:19:15.206Z,39.81
2022-08-19T22:24:17.413Z,39.69
2022-08-19T22:29:25.106Z,39.90
2022-08-19T22:34:56.859Z,39.56
2022-08-19T22:40:00.772Z,39.68
2022-08-19T22:45:03.784Z,40.11
2022-08-19T22:50:08.450Z,40.56
2022-08-19T22:55:17.563Z,40.87
2022-08-19T23:00:21.856Z,41.10
2022-08-19T23:05:42.968Z,40.75
2022-08-19T23:10:45.411Z,41.48
2022-08-19T23:15:47.788Z,41.85
2022-08-19T23:20:50.765Z,42.26
2022-08-19T23:25:54.552Z,43.24
2022-08-19T23:30:57.043Z,44.44
2022-08-19T23:36:02.510Z,44.85
2022-08-19T23:41:06.705Z,44.48
2022-08-19T23:46:10.839Z,44.01
2022-08-19T23:51:31.961Z,44.19
2022-08-19T23:56:53.945Z,43.33
